Time;durP1;ratioP1;P1;durP2;ratioP2;P2;SDS_P1;SDS_P2;PMS_P1;PMS_P2;Temp;Humidity;BMP_temperature;BMP_pressure;BME280_temperature;BME280_humidity;BME280_pressure;Samples;Min_cycle;Max_cycle;Signal;HPM_P1;HPM_P2
2021/04/10 00:00:51;;;;;;;2.92;1.45;;;;;;;8.78;100.00;101494.31;5030676;28;20121;-66
2021/04/10 00:03:18;;;;;;;2.75;2.08;;;;;;;8.76;100.00;101497.25;5030511;28;20037;-67
2021/04/10 00:05:43;;;;;;;4.32;1.95;;;;;;;8.73;100.00;101497.69;5030635;28;20042;-66
2021/04/10 00:08:09;;;;;;;2.45;1.60;;;;;;;8.73;100.00;101491.41;5030501;28;20033;-67
2021/04/10 00:10:34;;;;;;;3.03;1.92;;;;;;;8.71;100.00;101499.78;5030434;28;20042;-66
2021/04/10 00:13:01;;;;;;;5.15;2.00;;;;;;;8.70;100.00;101497.28;5031989;28;20051;-69
2021/04/10 00:15:30;;;;;;;3.67;2.33;;;;;;;8.69;100.00;101495.59;5034421;28;20464;-68
2021/04/10 00:17:56;;;;;;;2.40;1.60;;;;;;;8.69;100.00;101493.72;5034346;28;20151;-67
2021/04/10 00:20:22;;;;;;;2.97;1.80;;;;;;;8.69;100.00;101499.16;5033049;28;20044;-67
2021/04/10 00:22:48;;;;;;;3.05;1.65;;;;;;;8.68;100.00;101502.94;5034247;28;20080;-68
2021/04/10 00:25:15;;;;;;;1.98;1.55;;;;;;;8.66;100.00;101496.84;5033007;28;20052;-68
2021/04/10 00:27:41;;;;;;;3.58;2.15;;;;;;;8.66;100.00;101494.13;5034357;28;20053;-68
2021/04/10 00:30:09;;;;;;;1.90;1.73;;;;;;;8.64;100.00;101500.84;5034259;28;20037;-68
2021/04/10 00:32:35;;;;;;;3.30;1.77;;;;;;;8.62;100.00;101495.59;5034228;28;20029;-67
2021/04/10 00:35:01;;;;;;;1.75;1.50;;;;;;;8.59;100.00;101493.31;5034032;28;20048;-67
2021/04/10 00:37:27;;;;;;;4.28;1.98;;;;;;;8.57;100.00;101486.41;5033971;28;20091;-67
2021/04/10 00:39:52;;;;;;;3.53;1.70;;;;;;;8.55;100.00;101483.91;5034039;28;20448;-67
2021/04/10 00:42:18;;;;;;;5.70;1.98;;;;;;;8.53;100.00;101483.28;5033984;28;20044;-66
2021/04/10 00:44:43;;;;;;;3.78;1.70;;;;;;;8.53;100.00;101480.56;5032517;28;20041;-69
2021/04/10 00:47:09;;;;;;;4.40;1.85;;;;;;;8.51;100.00;101477.22;5033996;28;20060;-68
2021/04/10 00:49:35;;;;;;;4.15;1.73;;;;;;;8.50;100.00;101480.97;5033953;28;20432;-67
2021/04/10 00:52:01;;;;;;;4.97;1.90;;;;;;;8.49;100.00;101479.28;5033722;28;20045;-67
2021/04/10 00:54:27;;;;;;;2.58;1.90;;;;;;;8.48;100.00;101483.06;5033479;28;20064;-68
2021/04/10 00:56:53;;;;;;;3.85;1.42;;;;;;;8.48;100.00;101474.91;5033823;28;20037;-67
2021/04/10 00:59:19;;;;;;;3.65;1.95;;;;;;;8.48;100.00;101477.63;5033638;28;20056;-66
2021/04/10 01:01:45;;;;;;;3.55;1.33;;;;;;;8.49;100.00;101473.00;5033539;28;20041;-67
2021/04/10 01:04:11;;;;;;;2.13;1.33;;;;;;;8.48;100.00;101483.06;5034003;28;20046;-67
2021/04/10 01:06:36;;;;;;;5.45;1.40;;;;;;;8.49;100.00;101476.56;5033662;28;20045;-68
2021/04/10 01:09:03;;;;;;;2.72;1.40;;;;;;;8.48;100.00;101477.63;5033596;28;20033;-67
2021/04/10 01:11:39;;;;;;;1.63;1.10;;;;;;;8.48;100.00;101471.34;5033608;28;20033;-66
2021/04/10 01:14:35;;;;;;;3.25;1.65;;;;;;;8.47;100.00;101465.06;5033298;28;20037;-69
2021/04/10 01:17:15;;;;;;;2.97;1.40;;;;;;;8.47;100.00;101465.06;5031845;28;20483;-66
2021/04/10 01:19:43;;;;;;;3.08;1.95;;;;;;;8.46;100.00;101469.66;5033415;28;20038;-67
2021/04/10 01:22:44;;;;;;;4.93;1.60;;;;;;;8.46;100.00;101463.38;5033186;28;20041;-67
2021/04/10 01:25:31;;;;;;;3.13;1.60;;;;;;;8.45;100.00;101468.00;5030014;28;20053;-68
2021/04/10 01:27:58;;;;;;;2.42;1.65;;;;;;;8.45;100.00;101461.72;5033238;28;20116;-69
2021/04/10 01:30:26;;;;;;;3.55;2.67;;;;;;;8.43;100.00;101458.38;5033126;28;20064;-67
2021/04/10 01:32:55;;;;;;;4.90;1.92;;;;;;;8.41;100.00;101455.03;5032873;28;20036;-68
2021/04/10 01:35:24;;;;;;;3.05;1.80;;;;;;;8.40;100.00;101451.47;5032939;28;20040;-67
2021/04/10 01:37:58;;;;;;;4.05;2.10;;;;;;;8.40;100.00;101453.38;5031456;28;20033;-67
2021/04/10 01:40:28;;;;;;;4.22;1.77;;;;;;;8.40;100.00;101447.91;5032951;28;20457;-66
2021/04/10 01:42:56;;;;;;;3.33;2.30;;;;;;;8.38;100.00;101455.47;5032826;28;20061;-67
2021/04/10 01:45:23;;;;;;;3.42;2.00;;;;;;;8.37;100.00;101453.78;5032877;28;20030;-67
2021/04/10 01:47:51;;;;;;;3.30;1.75;;;;;;;8.36;100.00;101452.97;5032899;28;20029;-67
2021/04/10 01:50:19;;;;;;;3.42;1.70;;;;;;;8.35;100.00;101455.91;5032739;28;20061;-67
2021/04/10 01:52:46;;;;;;;2.40;1.90;;;;;;;8.34;100.00;101448.78;5032466;28;20080;-66
2021/04/10 01:55:14;;;;;;;2.03;1.80;;;;;;;8.31;100.00;101443.69;5032630;28;20063;-66
2021/04/10 01:57:41;;;;;;;2.55;1.73;;;;;;;8.32;100.00;101439.94;5032593;28;20081;-66
2021/04/10 02:00:08;;;;;;;2.63;2.00;;;;;;;8.30;100.00;101444.75;5032658;28;20034;-67
2021/04/10 02:02:39;;;;;;;4.18;1.92;;;;;;;8.27;100.00;101431.56;5032412;28;20095;-67
2021/04/10 02:05:07;;;;;;;8.02;2.75;;;;;;;8.24;100.00;101432.00;5030968;28;20464;-67
2021/04/10 02:07:34;;;;;;;2.30;1.70;;;;;;;8.22;100.00;101439.56;5032453;28;20475;-66
2021/04/10 02:10:02;;;;;;;2.53;2.15;;;;;;;8.21;100.00;101437.88;5032339;28;20041;-67
2021/04/10 02:12:30;;;;;;;4.22;2.20;;;;;;;8.18;100.00;101438.31;5032295;28;20025;-68
2021/04/10 02:15:00;;;;;;;3.17;1.95;;;;;;;8.15;100.00;101429.50;5032209;28;20068;-67
2021/04/10 02:17:28;;;;;;;4.68;1.92;;;;;;;8.15;100.00;101434.94;5032376;28;20446;-67
2021/04/10 02:19:54;;;;;;;3.92;2.10;;;;;;;8.12;100.00;101435.38;5032170;28;20091;-67
2021/04/10 02:22:22;;;;;;;5.63;1.85;;;;;;;8.12;100.00;101440.81;5032111;28;20045;-68
2021/04/10 02:24:48;;;;;;;3.33;1.77;;;;;;;8.11;100.00;101430.97;5032026;28;20036;-66
2021/04/10 02:27:14;;;;;;;2.75;1.80;;;;;;;8.13;100.00;101434.31;5032132;28;20068;-67
2021/04/10 02:29:41;;;;;;;3.65;2.10;;;;;;;8.12;100.00;101429.09;5032042;28;20084;-66
2021/04/10 02:32:22;;;;;;;3.85;2.15;;;;;;;8.10;100.00;101426.59;5031971;28;20487;-68
2021/04/10 02:35:10;;;;;;;3.50;1.60;;;;;;;8.09;100.00;101421.34;5032009;28;20040;-69
2021/04/10 02:37:37;;;;;;;6.40;2.50;;;;;;;8.08;100.00;101423.25;5031931;28;20497;-68
2021/04/10 02:40:07;;;;;;;5.22;2.30;;;;;;;8.07;100.00;101420.72;5031734;28;20041;-67
2021/04/10 02:42:34;;;;;;;8.90;3.17;;;;;;;8.06;100.00;101425.34;5031564;28;20072;-67
2021/04/10 02:45:03;;;;;;;7.07;3.40;;;;;;;8.07;100.00;101427.00;5031625;28;20061;-66
2021/04/10 02:47:32;;;;;;;5.95;2.65;;;;;;;8.06;100.00;101422.63;5031645;28;20091;-67
2021/04/10 02:50:01;;;;;;;4.07;3.05;;;;;;;8.07;100.00;101420.72;5031607;28;20056;-66
2021/04/10 02:52:33;;;;;;;6.90;3.72;;;;;;;8.04;100.00;101421.16;5030233;28;20033;-68
2021/04/10 02:55:02;;;;;;;7.70;3.58;;;;;;;8.03;100.00;101428.50;5031269;28;20068;-67
2021/04/10 02:57:29;;;;;;;6.88;4.30;;;;;;;8.01;100.00;101425.16;5031590;28;20514;-67
2021/04/10 02:59:59;;;;;;;6.57;4.20;;;;;;;7.99;100.00;101424.53;5031494;28;20037;-66
2021/04/10 03:02:25;;;;;;;8.10;4.20;;;;;;;7.99;100.00;101419.09;5031255;28;20038;-66
2021/04/10 03:04:52;;;;;;;8.80;4.78;;;;;;;7.95;100.00;101422.41;5031222;28;20044;-68
2021/04/10 03:07:18;;;;;;;6.38;4.68;;;;;;;7.94;100.00;101420.75;5030059;28;20034;-67
2021/04/10 03:09:46;;;;;;;11.23;4.82;;;;;;;7.91;100.00;101422.00;5031175;28;20124;-66
2021/04/10 03:12:16;;;;;;;6.32;4.60;;;;;;;7.90;100.00;101425.78;5031355;28;20041;-66
2021/04/10 03:14:43;;;;;;;10.35;5.72;;;;;;;7.88;100.00;101422.44;5031115;28;20091;-68
2021/04/10 03:17:17;;;;;;;10.10;5.45;;;;;;;7.88;100.00;101427.88;5031242;28;20124;-67
2021/04/10 03:19:44;;;;;;;6.03;4.90;;;;;;;7.86;100.00;101425.34;5031172;28;20029;-67
2021/04/10 03:22:11;;;;;;;11.32;6.20;;;;;;;7.87;100.00;101426.19;5031044;28;20037;-66
2021/04/10 03:24:37;;;;;;;8.23;5.45;;;;;;;7.84;100.00;101423.91;5030957;28;20033;-67
2021/04/10 03:27:04;;;;;;;9.32;5.50;;;;;;;7.83;100.00;101423.06;5031076;28;20087;-66
2021/04/10 03:29:29;;;;;;;11.55;6.15;;;;;;;7.82;100.00;101424.13;5030940;28;20049;-68
2021/04/10 03:31:57;;;;;;;10.50;6.30;;;;;;;7.83;100.00;101427.66;5030981;28;20044;-66
2021/04/10 03:34:25;;;;;;;11.90;7.13;;;;;;;7.82;100.00;101423.28;5030793;28;20034;-67
2021/04/10 03:36:52;;;;;;;11.00;7.00;;;;;;;7.81;100.00;101418.88;5030924;28;20538;-68
2021/04/10 03:39:18;;;;;;;7.90;7.10;;;;;;;7.80;100.00;101409.88;5030829;28;20045;-69
2021/04/10 03:41:45;;;;;;;11.68;7.00;;;;;;;7.81;100.00;101421.59;5030763;28;20049;-68
2021/04/10 03:44:11;;;;;;;9.45;7.07;;;;;;;7.80;100.00;101425.34;5030831;28;20056;-67
2021/04/10 03:46:37;;;;;;;13.45;7.97;;;;;;;7.77;100.00;101420.31;5030863;28;20483;-66
2021/04/10 03:49:04;;;;;;;11.48;7.57;;;;;;;7.76;100.00;101418.66;5036850;28;20041;-68
2021/04/10 03:51:30;;;;;;;9.82;6.88;;;;;;;7.74;100.00;101420.75;5037453;28;20037;-68
2021/04/10 03:53:56;;;;;;;13.32;8.02;;;;;;;7.74;100.00;101415.31;5037100;28;20587;-67
2021/04/10 03:56:22;;;;;;;11.93;8.10;;;;;;;7.75;100.00;101417.00;5037430;28;20041;-67
2021/04/10 03:58:48;;;;;;;11.52;7.70;;;;;;;7.75;100.00;101422.44;5037240;28;20049;-68
2021/04/10 04:01:14;;;;;;;9.70;7.22;;;;;;;7.75;100.00;101428.69;5037977;28;20136;-67
2021/04/10 04:03:40;;;;;;;11.60;8.00;;;;;;;7.75;100.00;101422.44;5037577;28;20128;-69
2021/04/10 04:06:05;;;;;;;10.52;7.40;;;;;;;7.75;100.00;101423.25;5035991;28;20511;-67
2021/04/10 04:08:31;;;;;;;14.23;8.75;;;;;;;7.75;100.00;101422.44;5037163;28;20041;-67
2021/04/10 04:10:56;;;;;;;14.75;8.85;;;;;;;7.73;100.00;101430.78;5037524;28;20041;-67
2021/04/10 04:13:22;;;;;;;13.52;8.07;;;;;;;7.74;100.00;101428.91;5037188;28;20470;-67
2021/04/10 04:15:48;;;;;;;8.23;6.68;;;;;;;7.73;100.00;101416.38;5037319;28;20037;-67
2021/04/10 04:18:13;;;;;;;9.80;7.10;;;;;;;7.72;100.00;101417.41;5037024;28;20072;-67
2021/04/10 04:20:39;;;;;;;9.63;6.70;;;;;;;7.71;100.00;101421.19;5037069;28;20183;-66
2021/04/10 04:23:04;;;;;;;9.20;5.95;;;;;;;7.73;100.00;101421.81;5037239;28;20072;-66
2021/04/10 04:25:31;;;;;;;11.48;6.28;;;;;;;7.71;100.00;101421.19;5036968;28;20048;-66
2021/04/10 04:27:56;;;;;;;9.88;6.85;;;;;;;7.72;100.00;101422.84;5037033;28;20048;-66
2021/04/10 04:30:23;;;;;;;8.48;6.10;;;;;;;7.72;100.00;101422.84;5037080;28;20041;-67
2021/04/10 04:32:48;;;;;;;9.10;6.57;;;;;;;7.72;100.00;101425.56;5037086;28;20279;-69
2021/04/10 04:35:14;;;;;;;11.38;6.68;;;;;;;7.73;100.00;101419.91;5036869;28;20079;-67
2021/04/10 04:37:40;;;;;;;11.80;6.35;;;;;;;7.75;100.00;101419.72;5036865;28;20061;-67
2021/04/10 04:40:08;;;;;;;9.02;6.05;;;;;;;7.76;100.00;101426.81;5037269;28;20116;-67
2021/04/10 04:42:34;;;;;;;14.73;6.75;;;;;;;7.76;100.00;101424.09;5036879;28;20049;-67
2021/04/10 04:45:00;;;;;;;11.80;6.88;;;;;;;7.78;100.00;101422.00;5036794;28;20471;-67
2021/04/10 04:47:25;;;;;;;8.68;6.47;;;;;;;7.77;100.00;101421.16;5036852;28;20128;-68
2021/04/10 04:49:52;;;;;;;11.30;6.85;;;;;;;7.79;100.00;101419.06;5036992;28;20057;-67
2021/04/10 04:52:17;;;;;;;12.70;7.05;;;;;;;7.80;100.00;101417.19;5037060;28;20503;-67
2021/04/10 04:54:43;;;;;;;8.02;6.63;;;;;;;7.79;100.00;101416.34;5036292;28;20057;-67
2021/04/10 04:57:09;;;;;;;10.63;6.50;;;;;;;7.80;100.00;101422.63;5036634;28;20060;-66
2021/04/10 04:59:34;;;;;;;9.80;6.85;;;;;;;7.81;100.00;101421.59;5032373;28;20045;-67
2021/04/10 05:02:00;;;;;;;9.82;5.75;;;;;;;7.82;100.00;101426.00;5033409;28;20038;-66
2021/04/10 05:04:26;;;;;;;9.48;6.50;;;;;;;7.81;100.00;101416.16;5033280;28;20037;-67
2021/04/10 05:06:52;;;;;;;9.63;5.90;;;;;;;7.80;100.00;101419.91;5033614;28;20040;-67
2021/04/10 05:09:17;;;;;;;10.70;5.70;;;;;;;7.79;100.00;101418.22;5033451;28;20131;-67
2021/04/10 05:11:43;;;;;;;9.75;6.15;;;;;;;7.78;100.00;101422.00;5033577;28;20120;-67
2021/04/10 05:14:09;;;;;;;12.52;6.30;;;;;;;7.76;100.00;101415.94;5033465;28;20041;-67
2021/04/10 05:16:34;;;;;;;9.68;5.57;;;;;;;7.75;100.00;101419.72;5033327;28;20045;-66
2021/04/10 05:19:00;;;;;;;9.85;5.63;;;;;;;7.74;100.00;101424.31;5033401;28;20049;-66
2021/04/10 05:21:26;;;;;;;8.75;6.00;;;;;;;7.74;100.00;101415.31;5033271;28;20037;-67
2021/04/10 05:23:51;;;;;;;8.43;5.47;;;;;;;7.75;100.00;101419.72;5031744;28;20052;-69
2021/04/10 05:26:18;;;;;;;9.77;5.75;;;;;;;7.74;100.00;101421.59;5033305;28;20037;-70
2021/04/10 05:28:43;;;;;;;12.13;6.07;;;;;;;7.76;100.00;101429.53;5033221;28;20033;-67
2021/04/10 05:31:09;;;;;;;8.32;5.68;;;;;;;7.76;100.00;101429.53;5033104;28;20103;-66
2021/04/10 05:33:34;;;;;;;9.25;5.88;;;;;;;7.76;100.00;101426.81;5033077;28;20431;-66
2021/04/10 05:36:00;;;;;;;11.90;5.25;;;;;;;7.76;100.00;101434.97;5033042;28;20039;-67
2021/04/10 05:38:26;;;;;;;7.97;4.50;;;;;;;7.73;100.00;101427.25;5032938;28;20080;-67
2021/04/10 05:40:53;;;;;;;9.80;5.28;;;;;;;7.72;100.00;101439.16;5031546;28;20047;-67
2021/04/10 05:43:19;;;;;;;9.07;4.15;;;;;;;7.69;100.00;101445.03;5032771;28;20046;-67
2021/04/10 05:45:45;;;;;;;10.05;5.07;;;;;;;7.65;100.00;101435.63;5032790;28;20072;-67
2021/04/10 05:48:11;;;;;;;7.57;3.50;;;;;;;7.59;100.00;101433.72;5032757;28;20040;-67
2021/04/10 05:50:37;;;;;;;5.85;4.28;;;;;;;7.57;100.00;101434.75;5032797;28;20037;-67
2021/04/10 05:53:03;;;;;;;7.93;3.88;;;;;;;7.51;100.00;101443.75;5032517;28;20044;-66
2021/04/10 05:55:28;;;;;;;7.15;3.72;;;;;;;7.46;100.00;101435.41;5032661;28;20056;-67
2021/04/10 05:57:54;;;;;;;7.55;3.83;;;;;;;7.45;100.00;101433.69;5032666;28;20049;-67
2021/04/10 06:00:20;;;;;;;11.02;4.78;;;;;;;7.45;100.00;101435.56;5032578;28;20079;-67
2021/04/10 06:02:50;;;;;;;8.88;4.15;;;;;;;7.45;100.00;101444.56;5031258;28;20084;-67
2021/04/10 06:05:18;;;;;;;8.02;3.92;;;;;;;7.45;100.00;101439.13;5032490;28;20040;-67
2021/04/10 06:07:44;;;;;;;8.13;4.05;;;;;;;7.44;100.00;101437.44;5032537;28;20616;-68
2021/04/10 06:10:10;;;;;;;8.25;4.22;;;;;;;7.43;100.00;101441.22;5032091;28;20033;-66
2021/04/10 06:12:36;;;;;;;7.55;3.60;;;;;;;7.43;100.00;101437.66;5032744;28;20033;-69
2021/04/10 06:15:03;;;;;;;9.15;3.67;;;;;;;7.43;100.00;101441.22;5032158;28;20045;-67
2021/04/10 06:17:29;;;;;;;7.20;3.60;;;;;;;7.45;100.00;101441.84;5032276;28;20125;-67
2021/04/10 06:19:55;;;;;;;6.00;3.42;;;;;;;7.44;100.00;101448.31;5032289;28;20124;-66
2021/04/10 06:22:20;;;;;;;6.78;3.30;;;;;;;7.43;100.00;101457.53;5032424;28;20157;-66
2021/04/10 06:24:46;;;;;;;7.25;3.13;;;;;;;7.43;100.00;101452.09;5032057;28;20042;-67
2021/04/10 06:27:11;;;;;;;6.97;3.70;;;;;;;7.44;100.00;101453.75;5032436;28;20088;-67
2021/04/10 06:29:37;;;;;;;7.80;3.42;;;;;;;7.43;100.00;101452.09;5032037;28;20049;-67
2021/04/10 06:32:02;;;;;;;8.93;3.45;;;;;;;7.45;100.00;101460.88;5032066;28;20026;-67
2021/04/10 06:34:28;;;;;;;9.07;3.22;;;;;;;7.43;100.00;101460.25;5032035;28;20534;-66
2021/04/10 06:36:54;;;;;;;6.68;3.28;;;;;;;7.43;100.00;101468.41;5031973;28;20029;-67
2021/04/10 06:39:21;;;;;;;9.50;3.58;;;;;;;7.43;100.00;101462.97;5031978;28;20037;-67
2021/04/10 06:41:47;;;;;;;9.32;4.32;;;;;;;7.43;100.00;101459.41;5031881;28;20045;-68
2021/04/10 06:44:12;;;;;;;6.10;3.50;;;;;;;7.43;100.00;101462.97;5031496;28;20037;-67
2021/04/10 06:46:38;;;;;;;7.18;4.20;;;;;;;7.40;100.00;101457.94;5031849;28;20037;-67
2021/04/10 06:49:06;;;;;;;6.30;3.38;;;;;;;7.41;100.00;101462.34;5031688;28;20060;-67
2021/04/10 06:51:32;;;;;;;8.05;3.25;;;;;;;7.40;100.00;101466.09;5031654;28;20037;-67
2021/04/10 06:53:58;;;;;;;7.47;3.30;;;;;;;7.41;100.00;101459.63;5030029;28;20171;-68
2021/04/10 06:56:27;;;;;;;8.27;3.58;;;;;;;7.41;100.00;101461.50;5031572;28;20450;-67
2021/04/10 06:59:03;;;;;;;7.82;3.08;;;;;;;7.40;100.00;101463.38;5031353;28;20124;-68
2021/04/10 07:01:29;;;;;;;5.45;3.10;;;;;;;7.41;100.00;101456.91;5031377;28;20044;-67
2021/04/10 07:03:55;;;;;;;6.65;3.03;;;;;;;7.43;100.00;101465.69;5031324;28;20480;-67
2021/04/10 07:06:21;;;;;;;10.77;2.83;;;;;;;7.44;100.00;101470.06;5029990;28;20076;-67
2021/04/10 07:08:47;;;;;;;6.50;3.80;;;;;;;7.46;100.00;101462.56;5031284;28;20055;-67
2021/04/10 07:11:16;;;;;;;10.73;3.67;;;;;;;7.47;100.00;101471.56;5031363;28;20037;-70
2021/04/10 07:13:43;;;;;;;5.75;2.45;;;;;;;7.47;100.00;101464.25;5031215;28;20038;-67
2021/04/10 07:16:09;;;;;;;7.20;3.40;;;;;;;7.50;100.00;101469.25;5030118;28;20463;-68
2021/04/10 07:18:35;;;;;;;6.30;2.83;;;;;;;7.53;100.00;101465.28;5031326;28;20037;-66
2021/04/10 07:21:24;;;;;;;9.35;2.70;;;;;;;7.53;100.00;101463.41;5031166;28;20033;-67
2021/04/10 07:23:54;;;;;;;9.05;3.17;;;;;;;7.55;100.00;101469.47;5030271;28;20053;-66
2021/04/10 07:26:48;;;;;;;6.97;2.70;;;;;;;7.57;100.00;101469.25;5031151;28;20082;-69
2021/04/10 07:29:39;;;;;;;8.23;3.05;;;;;;;7.61;100.00;101469.69;5030168;28;20368;-66
2021/04/10 07:32:33;;;;;;;6.90;2.53;;;;;;;7.68;100.00;101471.38;5031023;28;20085;-66
2021/04/10 07:35:03;;;;;;;6.03;2.40;;;;;;;7.74;100.00;101477.84;5030832;28;20047;-65
2021/04/10 07:37:34;;;;;;;5.93;3.05;;;;;;;7.79;100.00;101476.19;5030984;28;20060;-68
2021/04/10 07:40:34;;;;;;;9.75;3.20;;;;;;;7.82;100.00;101478.50;5030897;28;20038;-66
2021/04/10 07:43:01;;;;;;;7.10;2.72;;;;;;;7.86;100.00;101476.19;5030736;28;20041;-68
2021/04/10 07:45:37;;;;;;;6.47;2.70;;;;;;;7.86;100.00;101478.91;5030912;28;20030;-67
2021/04/10 07:48:04;;;;;;;6.85;3.22;;;;;;;7.91;100.00;101476.41;5030897;28;20037;-67
2021/04/10 07:50:33;;;;;;;7.93;3.25;;;;;;;7.95;100.00;101482.25;5030854;28;20042;-67
2021/04/10 07:53:22;;;;;;;7.50;3.00;;;;;;;8.01;100.00;101476.84;5030745;28;20138;-67
2021/04/10 07:55:49;;;;;;;7.32;3.47;;;;;;;8.02;100.00;101486.66;5030836;28;20395;-70
2021/04/10 07:58:17;;;;;;;10.23;3.55;;;;;;;8.07;100.00;101477.88;5030826;28;20041;-67
2021/04/10 08:00:43;;;;;;;8.60;3.13;;;;;;;8.12;100.00;101478.91;5030849;28;20372;-67
2021/04/10 08:03:27;;;;;;;7.00;3.97;;;;;;;8.14;100.00;101482.25;5030568;28;20060;-67
2021/04/10 08:05:53;;;;;;;5.03;2.92;;;;;;;8.19;100.00;101484.34;5030677;28;20064;-67
2021/04/10 08:08:21;;;;;;;7.18;3.08;;;;;;;8.22;100.00;101481.22;5030595;28;20472;-68
2021/04/10 08:10:47;;;;;;;9.98;3.13;;;;;;;8.23;100.00;101473.88;5030723;28;20392;-67
2021/04/10 08:13:13;;;;;;;5.95;3.00;;;;;;;8.24;100.00;101486.44;5030547;28;20036;-67
2021/04/10 08:15:39;;;;;;;9.88;3.70;;;;;;;8.27;100.00;101480.56;5030599;28;20033;-69
2021/04/10 08:18:22;;;;;;;7.25;4.30;;;;;;;8.42;100.00;101478.47;5030633;28;20092;-70
2021/04/10 08:20:50;;;;;;;9.20;3.60;;;;;;;8.55;100.00;101473.00;5030689;28;20037;-67
2021/04/10 08:23:17;;;;;;;12.13;4.30;;;;;;;8.66;100.00;101469.63;5030553;28;20121;-68
2021/04/10 08:25:43;;;;;;;9.77;4.18;;;;;;;8.81;100.00;101473.97;5012761;28;20041;-67
2021/04/10 08:28:09;;;;;;;11.98;3.33;;;;;;;8.97;100.00;101465.31;5030668;28;20381;-66
2021/04/10 08:30:34;;;;;;;15.85;4.10;;;;;;;9.16;100.00;101467.09;5030601;28;20037;-67
2021/04/10 08:33:00;;;;;;;5.22;3.75;;;;;;;9.37;100.00;101465.94;5030859;28;20376;-67
2021/04/10 08:35:26;;;;;;;8.60;4.18;;;;;;;9.53;100.00;101459.97;5034454;28;20037;-67
2021/04/10 08:38:02;;;;;;;9.63;4.28;;;;;;;9.64;100.00;101466.63;5034400;28;20095;-66
2021/04/10 08:40:30;;;;;;;9.75;4.22;;;;;;;9.73;100.00;101459.00;5034504;28;20041;-67
2021/04/10 08:42:58;;;;;;;11.60;4.47;;;;;;;9.82;100.00;101458.50;5034305;28;20033;-67
2021/04/10 08:45:29;;;;;;;10.43;5.38;;;;;;;9.87;100.00;101461.38;5034242;28;20159;-67
2021/04/10 08:47:55;;;;;;;9.00;5.05;;;;;;;9.94;100.00;101464.91;5034385;28;20523;-67
2021/04/10 08:50:21;;;;;;;7.72;4.75;;;;;;;9.93;100.00;101465.97;5034169;28;20087;-66
2021/04/10 08:52:47;;;;;;;8.85;4.35;;;;;;;9.83;100.00;101464.78;5033868;28;20041;-67
2021/04/10 08:55:14;;;;;;;10.23;4.10;;;;;;;9.69;100.00;101461.31;5033663;28;20053;-67
2021/04/10 08:57:42;;;;;;;11.93;4.53;;;;;;;9.58;100.00;101467.50;5033784;28;20041;-67
2021/04/10 09:00:21;;;;;;;12.35;4.00;;;;;;;9.59;100.00;101463.72;5032547;28;20388;-66
2021/04/10 09:02:52;;;;;;;6.05;3.72;;;;;;;9.67;100.00;101460.72;5033606;28;20116;-66
2021/04/10 09:05:18;;;;;;;10.18;4.53;;;;;;;9.72;100.00;101458.19;5033895;28;20041;-67
2021/04/10 09:07:46;;;;;;;9.13;4.28;;;;;;;9.79;100.00;101458.94;5033629;28;20041;-66
2021/04/10 09:10:24;;;;;;;12.38;4.72;;;;;;;9.89;100.00;101464.75;5033553;28;20029;-67
2021/04/10 09:13:15;;;;;;;10.57;4.63;;;;;;;9.98;100.00;101468.84;5032253;28;20037;-66
2021/04/10 09:15:42;;;;;;;8.60;4.05;;;;;;;9.96;100.00;101462.78;5041483;28;20049;-69
2021/04/10 09:18:10;;;;;;;7.07;4.32;;;;;;;10.12;100.00;101457.84;5033345;28;20033;-67
2021/04/10 09:20:42;;;;;;;8.07;4.38;;;;;;;10.26;100.00;101460.25;5033505;28;20495;-67
2021/04/10 09:23:17;;;;;;;9.93;4.63;;;;;;;10.41;100.00;101459.91;5033619;28;20113;-68
2021/04/10 09:25:45;;;;;;;9.68;4.47;;;;;;;10.57;100.00;101462.00;5033119;28;20037;-68
2021/04/10 09:28:10;;;;;;;10.07;3.95;;;;;;;10.70;100.00;101462.94;5031945;28;20487;-67
2021/04/10 09:30:39;;;;;;;8.10;3.40;;;;;;;10.81;100.00;101462.19;5033440;28;20056;-66
2021/04/10 09:33:29;;;;;;;7.30;3.50;;;;;;;10.85;100.00;101453.28;5033021;28;20032;-67
2021/04/10 09:35:56;;;;;;;8.00;3.33;;;;;;;10.94;100.00;101461.19;5033124;28;20521;-68
2021/04/10 09:38:41;;;;;;;8.68;4.82;;;;;;;11.00;100.00;101460.25;5033082;28;20038;-67
2021/04/10 09:41:07;;;;;;;;;;;;;;;11.08;100.00;101455.28;5033191;28;20403;-66
2021/04/10 09:43:33;;;;;;;9.68;3.67;;;;;;;11.13;99.06;101460.09;5032761;28;20367;-68
2021/04/10 09:45:59;;;;;;;6.82;3.40;;;;;;;11.25;99.85;101460.94;5032147;28;20046;-67
2021/04/10 09:48:30;;;;;;;7.90;4.07;;;;;;;11.36;99.51;101462.06;5032709;28;20052;-68
2021/04/10 09:50:56;;;;;;;9.68;4.28;;;;;;;11.53;100.00;101471.28;5032856;28;20053;-67
2021/04/10 09:53:23;;;;;;;6.55;3.33;;;;;;;11.63;98.60;101466.09;5032831;28;20029;-68
2021/04/10 09:55:56;;;;;;;8.20;3.30;;;;;;;11.56;98.88;101464.53;5032867;28;20041;-67
2021/04/10 09:58:23;;;;;;;9.57;3.58;;;;;;;11.40;98.06;101461.38;5032935;28;20033;-67
2021/04/10 10:00:55;;;;;;;6.15;3.33;;;;;;;11.42;98.21;101458.41;5032928;28;20118;-67
2021/04/10 10:03:23;;;;;;;6.88;3.38;;;;;;;11.42;100.00;101466.59;5032655;28;20037;-68
2021/04/10 10:05:50;;;;;;;7.22;3.00;;;;;;;11.46;99.01;101459.63;5032614;28;20037;-67
2021/04/10 10:08:18;;;;;;;8.13;3.30;;;;;;;11.47;97.78;101455.81;5032714;28;20033;-67
2021/04/10 10:10:46;;;;;;;8.48;3.15;;;;;;;11.15;98.58;101458.78;5032812;28;20072;-68
2021/04/10 10:13:18;;;;;;;9.23;2.92;;;;;;;10.88;100.00;101452.81;5032682;28;20108;-68
2021/04/10 10:15:46;;;;;;;8.90;3.08;;;;;;;10.84;99.66;101467.19;5032362;28;20037;-66
2021/04/10 10:18:18;;;;;;;8.55;4.00;;;;;;;10.79;100.00;101464.31;5032384;28;20040;-68
2021/04/10 10:20:54;;;;;;;6.20;3.25;;;;;;;10.94;99.18;101463.91;5032995;28;20049;-67
2021/04/10 10:23:20;;;;;;;6.20;3.38;;;;;;;11.07;100.00;101456.34;5032200;28;20041;-67
2021/04/10 10:25:46;;;;;;;5.75;2.92;;;;;;;11.04;100.00;101461.47;5031151;28;20033;-66
2021/04/10 10:28:13;;;;;;;6.38;3.13;;;;;;;10.93;97.46;101473.16;5032419;28;20735;-67
2021/04/10 10:30:39;;;;;;;10.60;3.38;;;;;;;10.92;99.55;101471.47;5032301;28;20037;-69
2021/04/10 10:33:06;;;;;;;5.25;3.10;;;;;;;11.17;97.37;101462.13;5032444;28;20030;-68
2021/04/10 10:35:32;;;;;;;8.23;3.22;;;;;;;11.40;96.81;101460.53;5032119;28;20041;-67
2021/04/10 10:38:04;;;;;;;6.35;2.88;;;;;;;11.62;93.34;101464.41;5032238;28;20034;-68
2021/04/10 10:40:29;;;;;;;9.35;3.50;;;;;;;11.80;90.02;101466.25;5032307;28;20092;-67
2021/04/10 10:43:03;;;;;;;7.43;3.13;;;;;;;11.97;85.90;101471.88;5030805;28;20046;-70
2021/04/10 10:45:49;;;;;;;7.33;3.07;;;;;;;12.14;85.13;101461.91;5032174;28;20037;-67
2021/04/10 10:48:37;;;;;;;10.10;3.10;;;;;;;12.28;80.75;101457.88;5032390;28;20266;-69
2021/04/10 10:51:10;;;;;;;4.93;2.42;;;;;;;12.42;82.08;101457.63;5032066;28;20148;-67
2021/04/10 10:53:44;;;;;;;5.63;3.03;;;;;;;12.53;80.55;101448.56;5031553;28;20049;-68
2021/04/10 10:56:27;;;;;;;7.70;2.60;;;;;;;12.72;79.67;101458.31;5031678;28;20041;-67
2021/04/10 10:58:59;;;;;;;4.97;3.05;;;;;;;12.81;77.49;101450.53;5031182;28;20160;-67
2021/04/10 11:01:27;;;;;;;5.75;3.00;;;;;;;12.94;73.18;101445.59;5031496;28;20041;-67
2021/04/10 11:04:07;;;;;;;7.32;2.80;;;;;;;12.85;72.49;101451.72;5031300;28;20373;-67
2021/04/10 11:06:47;;;;;;;6.35;2.63;;;;;;;13.05;74.80;101445.81;5031483;28;20189;-68
2021/04/10 11:09:22;;;;;;;9.95;3.05;;;;;;;13.16;73.54;101447.69;5031339;28;20597;-68
2021/04/10 11:11:50;;;;;;;6.18;3.08;;;;;;;13.13;67.89;101449.00;5031199;28;20048;-66
2021/04/10 11:14:24;;;;;;;6.25;2.35;;;;;;;13.26;68.98;101447.91;5031114;28;20076;-67
2021/04/10 11:16:52;;;;;;;5.00;2.72;;;;;;;13.39;68.33;101453.13;5031181;28;20041;-68
2021/04/10 11:19:44;;;;;;;4.60;2.63;;;;;;;13.45;64.29;101449.38;5031701;28;20045;-66
2021/04/10 11:22:15;;;;;;;5.00;2.53;;;;;;;13.35;67.30;101460.16;5028284;28;20063;-67
2021/04/10 11:24:42;;;;;;;4.18;2.60;;;;;;;13.36;69.10;101452.75;5030517;28;20136;-67
2021/04/10 11:27:25;;;;;;;6.38;2.50;;;;;;;13.68;68.62;101444.81;5031001;28;20092;-69
2021/04/10 11:29:53;;;;;;;6.85;2.95;;;;;;;13.83;66.07;101447.84;5030895;28;20124;-68
2021/04/10 11:32:42;;;;;;;6.25;2.42;;;;;;;14.02;61.28;101446.50;5031226;28;20375;-67